Albury
Weather
Information

and Archive.
Albury Local Internet Skycam This service provided and funded by Albury Local Internet

Help keep our weatherstation running:

Lavington Weatherstation live data - Conditions of Use

Last updated on 19-Apr-2019 at 18:19:07
Temperature
  Currently 22.2 degrees C
  Apparent Temperature ("Wind Chill") is 21.9 degrees C
  Today has ranged from 13.4 at 06:46 to 27.7 at 13:39
  Yesterday ranged from 15.0 at 05:20 to 28.1 at 14:25
Wind
  Now:    0.0kmh, gusting to   0.0kmh from 209 degrees (SSW)
  Hour:   1.4kmh, gusting to   6.5kmh
Rainfall
   0.0mm Midnight to Midnight (ie, yesterday)
   0.0mm Since Midnight (ie, so far today)
   0.0mm 9am yesterday to 9am today
   0.0mm Total this month
Misc items
  Relative humidity is 42%
  Dewpoint is 8.7 deg C
  Estimated Cloudbase is 5500 feet
  Barometric Pressure is 1025.0 mbar
  Solar Insolation: 0 W/m^2
  UV Index: 0.0 (Low)
Top Solar flares in the last 24 hours

Last 24 hours Temperature Graph (click graph for history)
temperature

Last 24 hours Dynamic Wind display (click image for 4-hour image):
Wind Rose

Current Yarrawonga Weather Radar and Infrared Satellite Images from the BOM.

Hourly summaries in the tables below are cumulative and peak values
for the preceding hour, and instantaneous values at the hour.
So far today, 19-Apr-2019
Time   Barom.  Wind + Gust    Direction   RH   Rain    Temp.  Minimum    Maximum
01:00  1025.0   4.1   7.9kmh   81 ( E )   39%  0.0mm   17.0  16.7@00:39 18.4@00:03
02:00  1025.0   3.7  10.1kmh   25 (NNE)   38%  0.0mm   16.8  16.2@01:16 17.2@01:55
03:00  1025.0   2.7   8.6kmh   33 (NNE)   32%  0.0mm   16.2  15.9@02:33 17.0@02:43
04:00  1025.0   1.0   7.2kmh   44 ( NE)   44%  0.0mm   15.2  15.3@03:59 16.5@03:21
05:00  1025.0   0.4   5.8kmh   43 ( NE)   52%  0.0mm   14.7  14.2@04:54 15.5@04:28
06:00  1026.0   0.2   6.5kmh   44 ( NE)   60%  0.0mm   14.7  14.0@05:23 15.3@05:47
07:00  1026.0   0.0   0.0kmh   35 ( NE)   69%  0.0mm   13.7  13.4@06:46 14.7@06:00
08:00  1027.0   1.7   8.6kmh   79 ( E )   67%  0.0mm   15.6  13.7@07:00 15.6@07:55
09:00  1028.0   5.9  10.8kmh  119 (ESE)   62%  0.0mm   17.3  15.3@08:11 17.3@08:59
10:00  1028.0   6.1  10.8kmh  139 ( SE)   57%  0.0mm   19.6  17.1@09:01 19.7@09:59
11:00  1027.0   8.2  18.0kmh    8 ( N )   50%  0.0mm   22.9  19.4@10:01 22.9@10:50
12:00  1026.0  10.7  23.0kmh  301 (WNW)   42%  0.0mm   25.3  22.9@11:00 25.5@11:58
13:00  1025.0  10.5  23.0kmh  309 ( NW)   36%  0.0mm   26.1  24.6@12:07 26.2@12:59
14:00  1025.0   9.2  20.9kmh  304 ( NW)   33%  0.0mm   26.3  25.1@13:09 27.7@13:39
15:00  1024.0   8.0  18.7kmh   19 (NNE)   31%  0.0mm   26.8  26.3@14:00 27.6@14:47
16:00  1024.0   7.5  18.0kmh  307 ( NW)   33%  0.0mm   26.2  25.9@15:40 27.0@15:02
17:00  1024.0   5.3  11.2kmh  299 (WNW)   38%  0.0mm   24.6  24.6@16:57 26.3@16:02
18:00  1024.0   3.1  10.1kmh  305 ( NW)   41%  0.0mm   23.3  23.2@17:59 24.9@17:09
18:19  1025.0   1.4   6.5kmh  209 (SSW)   42%  0.0mm   22.2  22.2@18:19 23.4@18:01


Summary for yesterday, 18-Apr-2019
Time   Barom.  Wind + Gust    Direction   RH   Rain    Temp.  Minimum    Maximum
01:00  1022.0   8.4  17.6kmh   14 (NNE)   46%  0.0mm   19.4  18.0@00:11 19.9@00:00
02:00  1022.0  10.9  19.4kmh   23 (NNE)   46%  0.0mm   19.2  19.1@01:21 19.5@01:02
03:00  1022.0   7.2  14.0kmh   37 ( NE)   60%  0.0mm   17.2  16.8@02:11 19.3@02:02
04:00  1022.0   3.9   9.4kmh   60 (ENE)   71%  0.0mm   15.3  15.3@03:59 17.8@03:28
05:00  1022.0   3.4  10.8kmh   53 ( NE)   71%  0.0mm   16.2  15.3@04:00 18.2@04:16
06:00  1023.0   3.2  10.8kmh   33 (NNE)   68%  0.0mm   16.4  15.0@05:20 16.8@05:50
07:00  1024.0   5.3   9.4kmh   34 ( NE)   56%  0.0mm   17.1  15.2@06:10 18.0@06:32
08:00  1025.0   8.9  23.0kmh    4 ( N )   49%  0.0mm   19.2  16.7@07:09 19.1@07:58
09:00  1025.0  16.9  26.3kmh    2 ( N )   43%  0.0mm   20.3  19.0@08:05 20.6@08:55
10:00  1025.0  15.7  27.0kmh   17 (NNE)   30%  0.0mm   23.5  20.2@09:13 23.6@09:59
11:00  1025.0  12.7  22.3kmh  328 (NNW)   29%  0.0mm   24.8  23.1@10:09 25.0@10:57
12:00  1024.0  13.6  24.5kmh  293 (WNW)   27%  0.0mm   26.2  24.2@11:07 26.2@11:59
13:00  1023.0  15.9  31.3kmh  309 ( NW)   25%  0.0mm   27.3  25.8@12:35 27.4@12:47
14:00  1022.0  14.3  25.6kmh  316 ( NW)   25%  0.0mm   27.7  26.6@13:12 27.9@13:54
15:00  1022.0  11.6  24.5kmh  295 (WNW)   25%  0.0mm   27.5  26.8@14:42 28.1@14:25
16:00  1022.0  11.0  23.8kmh  307 ( NW)   30%  0.0mm   26.8  26.2@15:45 27.6@15:01
17:00  1023.0  10.2  18.0kmh  195 (SSW)   40%  0.0mm   23.4  23.5@16:58 26.8@16:00
18:00  1023.0   9.7  19.4kmh  223 ( SW)   40%  0.0mm   22.1  22.0@17:59 23.4@17:00
19:00  1024.0   9.2  15.5kmh  219 ( SW)   37%  0.0mm   21.2  21.2@18:58 22.1@18:00
20:00  1025.0   8.5  16.2kmh  257 (WSW)   30%  0.0mm   20.4  20.4@19:47 21.2@19:00
21:00  1025.0   6.2  11.2kmh  271 ( W )   31%  0.0mm   19.2  19.2@20:58 20.5@20:08
22:00  1025.0   4.9   8.6kmh  351 ( N )   28%  0.0mm   19.1  18.5@21:40 19.7@21:22
23:00  1025.0   4.6   9.4kmh    6 ( N )   32%  0.0mm   18.2  17.8@22:34 19.4@22:13
00:00  1025.0   3.1   7.9kmh    6 ( N )   34%  0.0mm   18.0  17.7@23:11 19.0@23:23